PWSweather.com
Personal Weather Stations
Station Observations
BANEKERE1
AntwerpenBE

AntwerpenBE

Lat: 51.2809101, Lon: 4.4202713

Elevation: 40

Station Type:

http://www.akker.be

Latest ConditionsUpdated 2:00:01 PM GMT+01:01 Thursday, Aug 28, 2014
Currently Today's Max Today's Min Today's Average
Temperature 70.3°F21.3°C 70.3°F21.3°C 57.0°F13.9°C 61.4°F16.3°C
Dew Point 63.8°F17.7°C 63.8°F17.7°C 55.0°F12.8°C 58.4°F14.7°C
Winds 5.0 mph N8.0 kmh N 8.7 mph S14.0 kmh S - 2.1 mph 3.4 kmh
Wind Gusts 6.6 mph10.6 kmh 19.8 mph31.9 kmh - -
Humidity 80% 95% 78% 90%
Pressure 29.94 in1013.9 mb 30.00 in1015.9 mb 29.94 in1013.9 mb -
Hour Temp Dew Point Humidity Winds Wind Gusts Pressure Precip Precip Rate Daily Precip Total
02:00 PM 70.3°F21.3°C 63.8°F17.7°C 80% 5.0 mph N8.0 kmh N 6.6 mph10.6 kmh 29.94 in1013.9 mb 0.00 in0.0 mm 0.00 in/hr0.0 mm/hr 0.00 in0.0 mm
01:50 PM 69.8°F21.0°C 63.7°F17.6°C 81% 7.3 mph N11.7 kmh N 9.9 mph15.9 kmh 29.94 in1013.9 mb 0.00 in0.0 mm 0.00 in/hr0.0 mm/hr 0.00 in0.0 mm
01:40 PM 69.1°F20.6°C 63.4°F17.4°C 82% 4.7 mph S7.6 kmh S 6.6 mph10.6 kmh 29.94 in1013.9 mb 0.00 in0.0 mm 0.00 in/hr0.0 mm/hr 0.00 in0.0 mm
01:30 PM 69.0°F20.6°C 63.3°F17.4°C 82% 5.7 mph S9.2 kmh S 9.9 mph15.9 kmh 29.94 in1013.9 mb 0.00 in0.0 mm 0.00 in/hr0.0 mm/hr 0.00 in0.0 mm
01:20 PM 69.0°F20.6°C 63.3°F17.4°C 82% 5.1 mph N8.2 kmh N 6.6 mph10.6 kmh 29.94 in1013.9 mb 0.00 in0.0 mm 0.00 in/hr0.0 mm/hr 0.00 in0.0 mm
01:10 PM 68.8°F20.4°C 63.1°F17.3°C 82% 7.4 mph S11.9 kmh S 11.0 mph17.7 kmh 29.94 in1013.9 mb 0.00 in0.0 mm 0.00 in/hr0.0 mm/hr 0.00 in0.0 mm
01:00 PM 68.9°F20.5°C 62.8°F17.1°C 81% 8.7 mph S14.0 kmh S 13.2 mph21.2 kmh 29.95 in1014.2 mb 0.00 in0.0 mm 0.00 in/hr0.0 mm/hr 0.00 in0.0 mm
12:50 PM 69.1°F20.6°C 63.0°F17.2°C 81% 7.2 mph N11.6 kmh N 9.9 mph15.9 kmh 29.94 in1013.9 mb 0.00 in0.0 mm 0.00 in/hr0.0 mm/hr 0.00 in0.0 mm
12:40 PM 69.1°F20.6°C 62.7°F17.1°C 80% 8.1 mph N13.0 kmh N 12.1 mph19.5 kmh 29.94 in1013.9 mb 0.00 in0.0 mm 0.00 in/hr0.0 mm/hr 0.00 in0.0 mm
12:30 PM 69.1°F20.6°C 62.7°F17.1°C 80% 8.0 mph N12.9 kmh N 12.1 mph19.5 kmh 29.94 in1013.9 mb 0.00 in0.0 mm 0.00 in/hr0.0 mm/hr 0.00 in0.0 mm
12:20 PM 69.2°F20.7°C 62.8°F17.1°C 80% 5.9 mph S9.5 kmh S 9.9 mph15.9 kmh 29.94 in1013.9 mb 0.00 in0.0 mm 0.00 in/hr0.0 mm/hr 0.00 in0.0 mm
12:10 PM 69.3°F20.7°C 62.5°F16.9°C 79% 6.6 mph S10.6 kmh S 13.2 mph21.2 kmh 29.94 in1013.9 mb 0.00 in0.0 mm 0.00 in/hr0.0 mm/hr 0.00 in0.0 mm
12:00 PM 69.3°F20.7°C 62.1°F16.7°C 78% 7.2 mph SSE11.6 kmh SSE 6.6 mph10.6 kmh 29.94 in1013.9 mb 0.00 in0.0 mm 0.00 in/hr0.0 mm/hr 0.00 in0.0 mm
11:50 AM 69.6°F20.9°C 62.4°F16.9°C 78% 6.1 mph SSE9.8 kmh SSE 19.8 mph31.9 kmh 29.95 in1014.2 mb 0.00 in0.0 mm 0.00 in/hr0.0 mm/hr 0.00 in0.0 mm
11:40 AM 69.8°F21.0°C 62.6°F17.0°C 78% 6.4 mph N10.3 kmh N 9.9 mph15.9 kmh 29.94 in1013.9 mb 0.00 in0.0 mm 0.00 in/hr0.0 mm/hr 0.00 in0.0 mm
11:30 AM 69.6°F20.9°C 62.4°F16.9°C 78% 7.5 mph SW12.1 kmh SW 12.1 mph19.5 kmh 29.94 in1013.9 mb 0.00 in0.0 mm 0.00 in/hr0.0 mm/hr 0.00 in0.0 mm
11:20 AM 68.9°F20.5°C 62.1°F16.7°C 79% 8.3 mph N13.4 kmh N 14.3 mph23.0 kmh 29.94 in1013.9 mb 0.00 in0.0 mm 0.00 in/hr0.0 mm/hr 0.00 in0.0 mm
11:10 AM 68.5°F20.3°C 62.1°F16.7°C 80% 6.7 mph N10.8 kmh N 8.8 mph14.2 kmh 29.94 in1013.9 mb 0.00 in0.0 mm 0.00 in/hr0.0 mm/hr 0.00 in0.0 mm
11:00 AM 68.5°F20.3°C 62.4°F16.9°C 81% 2.1 mph SSE3.4 kmh SSE 4.4 mph7.1 kmh 29.94 in1013.9 mb 0.00 in0.0 mm 0.00 in/hr0.0 mm/hr 0.00 in0.0 mm
10:50 AM 67.9°F19.9°C 62.2°F16.8°C 82% 2.0 mph N3.2 kmh N 4.4 mph7.1 kmh 29.95 in1014.2 mb 0.00 in0.0 mm 0.00 in/hr0.0 mm/hr 0.00 in0.0 mm
10:40 AM 67.6°F19.8°C 62.2°F16.8°C 83% 3.5 mph SSE5.6 kmh SSE 7.7 mph12.4 kmh 29.95 in1014.2 mb 0.00 in0.0 mm 0.00 in/hr0.0 mm/hr 0.00 in0.0 mm
10:30 AM 67.2°F19.6°C 62.2°F16.8°C 84% 3.5 mph N5.6 kmh N 9.9 mph15.9 kmh 29.95 in1014.2 mb 0.00 in0.0 mm 0.00 in/hr0.0 mm/hr 0.00 in0.0 mm
10:20 AM 66.2°F19.0°C 62.9°F17.2°C 89% 2.8 mph SE4.5 kmh SE 6.6 mph10.6 kmh 29.95 in1014.2 mb 0.00 in0.0 mm 0.00 in/hr0.0 mm/hr 0.00 in0.0 mm
10:10 AM 64.0°F17.8°C 61.7°F16.5°C 92% 2.8 mph SE4.5 kmh SE 5.5 mph8.9 kmh 29.95 in1014.2 mb 0.00 in0.0 mm 0.00 in/hr0.0 mm/hr 0.00 in0.0 mm
10:00 AM 63.5°F17.5°C 61.4°F16.3°C 93% 1.9 mph SSE3.1 kmh SSE 5.5 mph8.9 kmh 29.95 in1014.2 mb 0.00 in0.0 mm 0.00 in/hr0.0 mm/hr 0.00 in0.0 mm
09:50 AM 63.1°F17.3°C 61.3°F16.3°C 94% 1.2 mph SE1.9 kmh SE 4.4 mph7.1 kmh 29.95 in1014.2 mb 0.00 in0.0 mm 0.00 in/hr0.0 mm/hr 0.00 in0.0 mm
09:40 AM 62.7°F17.1°C 61.0°F16.1°C 94% 0.2 mph SSE0.3 kmh SSE 3.3 mph5.3 kmh 29.95 in1014.2 mb 0.00 in0.0 mm 0.00 in/hr0.0 mm/hr 0.00 in0.0 mm
09:30 AM 62.3°F16.8°C 60.8°F16.0°C 95% 2.6 mph SE4.2 kmh SE 4.4 mph7.1 kmh 29.95 in1014.2 mb 0.00 in0.0 mm 0.00 in/hr0.0 mm/hr 0.00 in0.0 mm
09:20 AM 61.8°F16.6°C 60.4°F15.8°C 95% 2.0 mph SSE3.2 kmh SSE 4.4 mph7.1 kmh 29.96 in1014.6 mb 0.00 in0.0 mm 0.00 in/hr0.0 mm/hr 0.00 in0.0 mm
09:10 AM 61.4°F16.3°C 60.0°F15.6°C 95% 0.8 mph SE1.3 kmh SE 6.6 mph10.6 kmh 29.96 in1014.6 mb 0.00 in0.0 mm 0.00 in/hr0.0 mm/hr 0.00 in0.0 mm
09:00 AM 61.1°F16.2°C 59.6°F15.3°C 95% 1.9 mph ESE3.1 kmh ESE 7.7 mph12.4 kmh 29.96 in1014.6 mb 0.00 in0.0 mm 0.00 in/hr0.0 mm/hr 0.00 in0.0 mm
08:50 AM 60.9°F16.1°C 59.4°F15.2°C 95% 0.9 mph ENE1.4 kmh ENE 2.2 mph3.5 kmh 29.96 in1014.6 mb 0.00 in0.0 mm 0.00 in/hr0.0 mm/hr 0.00 in0.0 mm
08:40 AM 60.6°F15.9°C 59.2°F15.1°C 95% 1.2 mph SE1.9 kmh SE 4.4 mph7.1 kmh 29.96 in1014.6 mb 0.00 in0.0 mm 0.00 in/hr0.0 mm/hr 0.00 in0.0 mm
08:30 AM 60.5°F15.8°C 59.0°F15.0°C 95% 2.1 mph N3.4 kmh N 3.3 mph5.3 kmh 29.96 in1014.6 mb 0.00 in0.0 mm 0.00 in/hr0.0 mm/hr 0.00 in0.0 mm
08:20 AM 60.3°F15.7°C 58.9°F14.9°C 95% 1.7 mph SSE2.7 kmh SSE 5.5 mph8.9 kmh 29.96 in1014.6 mb 0.00 in0.0 mm 0.00 in/hr0.0 mm/hr 0.00 in0.0 mm
08:10 AM 60.1°F15.6°C 58.7°F14.8°C 95% 0.9 mph SE1.4 kmh SE 4.4 mph7.1 kmh 29.96 in1014.6 mb 0.00 in0.0 mm 0.00 in/hr0.0 mm/hr 0.00 in0.0 mm
08:00 AM 59.8°F15.4°C 58.4°F14.7°C 95% 1.3 mph SSE2.1 kmh SSE 6.6 mph10.6 kmh 29.96 in1014.6 mb 0.00 in0.0 mm 0.00 in/hr0.0 mm/hr 0.00 in0.0 mm
07:50 AM 59.6°F15.3°C 58.2°F14.6°C 95% 0.7 mph SE1.1 kmh SE 2.2 mph3.5 kmh 29.96 in1014.6 mb 0.00 in0.0 mm 0.00 in/hr0.0 mm/hr 0.00 in0.0 mm
07:40 AM 59.5°F15.3°C 58.1°F14.5°C 95% 2.8 mph N4.5 kmh N 3.3 mph5.3 kmh 29.96 in1014.6 mb 0.00 in0.0 mm 0.00 in/hr0.0 mm/hr 0.00 in0.0 mm
07:30 AM 59.3°F15.2°C 57.9°F14.4°C 95% 1.5 mph S2.4 kmh S 3.3 mph5.3 kmh 29.96 in1014.6 mb 0.00 in0.0 mm 0.00 in/hr0.0 mm/hr 0.00 in0.0 mm
07:20 AM 58.9°F14.9°C 57.5°F14.2°C 95% 2.4 mph SE3.9 kmh SE 2.2 mph3.5 kmh 29.96 in1014.6 mb 0.00 in0.0 mm 0.00 in/hr0.0 mm/hr 0.00 in0.0 mm
07:10 AM 58.4°F14.7°C 57.0°F13.9°C 95% 0.8 mph SE1.3 kmh SE 2.2 mph3.5 kmh 29.96 in1014.6 mb 0.00 in0.0 mm 0.00 in/hr0.0 mm/hr 0.00 in0.0 mm
07:00 AM 57.9°F14.4°C 56.5°F13.6°C 95% 1.6 mph SE2.6 kmh SE 3.3 mph5.3 kmh 29.97 in1014.9 mb 0.00 in0.0 mm 0.00 in/hr0.0 mm/hr 0.00 in0.0 mm
06:50 AM 57.5°F14.2°C 56.1°F13.4°C 95% Calm Calm 1.1 mph1.8 kmh 29.96 in1014.6 mb 0.00 in0.0 mm 0.00 in/hr0.0 mm/hr 0.00 in0.0 mm
06:40 AM 57.2°F14.0°C 55.8°F13.2°C 95% 0.3 mph SE0.5 kmh SE 1.1 mph1.8 kmh 29.96 in1014.6 mb 0.00 in0.0 mm 0.00 in/hr0.0 mm/hr 0.00 in0.0 mm
06:30 AM 57.1°F13.9°C 55.6°F13.1°C 95% 0.3 mph SE0.5 kmh SE 1.1 mph1.8 kmh 29.96 in1014.6 mb 0.00 in0.0 mm 0.00 in/hr0.0 mm/hr 0.00 in0.0 mm
06:20 AM 57.0°F13.9°C 55.6°F13.1°C 95% 0.5 mph SE0.8 kmh SE 2.2 mph3.5 kmh 29.96 in1014.6 mb 0.00 in0.0 mm 0.00 in/hr0.0 mm/hr 0.00 in0.0 mm
06:10 AM 57.0°F13.9°C 55.6°F13.1°C 95% 0.6 mph SE1.0 kmh SE 2.2 mph3.5 kmh 29.96 in1014.6 mb 0.00 in0.0 mm 0.00 in/hr0.0 mm/hr 0.00 in0.0 mm
06:00 AM 57.1°F13.9°C 55.6°F13.1°C 95% 0.4 mph SE0.6 kmh SE 2.2 mph3.5 kmh 29.96 in1014.6 mb 0.00 in0.0 mm 0.00 in/hr0.0 mm/hr 0.00 in0.0 mm
05:50 AM 57.1°F13.9°C 55.7°F13.2°C 95% 0.4 mph SE0.6 kmh SE 1.1 mph1.8 kmh 29.97 in1014.9 mb 0.00 in0.0 mm 0.00 in/hr0.0 mm/hr 0.00 in0.0 mm
05:40 AM 57.2°F14.0°C 55.5°F13.1°C 94% 0.5 mph SE0.8 kmh SE 2.2 mph3.5 kmh 29.96 in1014.6 mb 0.00 in0.0 mm 0.00 in/hr0.0 mm/hr 0.00 in0.0 mm
05:30 AM 57.2°F14.0°C 55.5°F13.1°C 94% 0.8 mph SE1.3 kmh SE 2.2 mph3.5 kmh 29.96 in1014.6 mb 0.00 in0.0 mm 0.00 in/hr0.0 mm/hr 0.00 in0.0 mm
05:20 AM 57.2°F14.0°C 55.5°F13.1°C 94% 0.9 mph SE1.4 kmh SE 3.3 mph5.3 kmh 29.96 in1014.6 mb 0.00 in0.0 mm 0.00 in/hr0.0 mm/hr 0.00 in0.0 mm
05:10 AM 57.3°F14.1°C 55.6°F13.1°C 94% 0.4 mph SE0.6 kmh SE 1.1 mph1.8 kmh 29.97 in1014.9 mb 0.00 in0.0 mm 0.00 in/hr0.0 mm/hr 0.00 in0.0 mm
05:00 AM 57.4°F14.1°C 55.7°F13.2°C 94% 0.1 mph E0.2 kmh E 1.1 mph1.8 kmh 29.96 in1014.6 mb 0.00 in0.0 mm 0.00 in/hr0.0 mm/hr 0.00 in0.0 mm
04:50 AM 57.5°F14.2°C 55.8°F13.2°C 94% Calm Calm 1.1 mph1.8 kmh 29.96 in1014.6 mb 0.00 in0.0 mm 0.00 in/hr0.0 mm/hr 0.00 in0.0 mm
04:40 AM 57.6°F14.2°C 55.9°F13.3°C 94% 0.2 mph E0.3 kmh E 1.1 mph1.8 kmh 29.97 in1014.9 mb 0.00 in0.0 mm 0.00 in/hr0.0 mm/hr 0.00 in0.0 mm
04:30 AM 57.6°F14.2°C 55.9°F13.3°C 94% 0.4 mph E0.6 kmh E 1.1 mph1.8 kmh 29.97 in1014.9 mb 0.00 in0.0 mm 0.00 in/hr0.0 mm/hr 0.00 in0.0 mm
04:20 AM 57.6°F14.2°C 55.9°F13.3°C 94% 0.1 mph E0.2 kmh E 1.1 mph1.8 kmh 29.97 in1014.9 mb 0.00 in0.0 mm 0.00 in/hr0.0 mm/hr 0.00 in0.0 mm
04:10 AM 57.6°F14.2°C 55.9°F13.3°C 94% 0.5 mph E0.8 kmh E 1.1 mph1.8 kmh 29.97 in1014.9 mb 0.00 in0.0 mm 0.00 in/hr0.0 mm/hr 0.00 in0.0 mm
04:00 AM 57.6°F14.2°C 55.9°F13.3°C 94% 0.1 mph E0.2 kmh E 1.1 mph1.8 kmh 29.97 in1014.9 mb 0.00 in0.0 mm 0.00 in/hr0.0 mm/hr 0.00 in0.0 mm
03:50 AM 57.4°F14.1°C 55.7°F13.2°C 94% 1.2 mph E1.9 kmh E 3.3 mph5.3 kmh 29.98 in1015.2 mb 0.00 in0.0 mm 0.00 in/hr0.0 mm/hr 0.00 in0.0 mm
03:40 AM 57.3°F14.1°C 55.6°F13.1°C 94% 0.3 mph E0.5 kmh E 1.1 mph1.8 kmh 29.98 in1015.2 mb 0.00 in0.0 mm 0.00 in/hr0.0 mm/hr 0.00 in0.0 mm
03:30 AM 57.3°F14.1°C 55.3°F12.9°C 93% Calm Calm 1.1 mph1.8 kmh 29.98 in1015.2 mb 0.00 in0.0 mm 0.00 in/hr0.0 mm/hr 0.00 in0.0 mm
03:20 AM 57.4°F14.1°C 55.4°F13.0°C 93% 0.2 mph E0.3 kmh E -- 29.98 in1015.2 mb 0.00 in0.0 mm 0.00 in/hr0.0 mm/hr 0.00 in0.0 mm
03:10 AM 57.5°F14.2°C 55.5°F13.1°C 93% Calm Calm -- 29.98 in1015.2 mb 0.00 in0.0 mm 0.00 in/hr0.0 mm/hr 0.00 in0.0 mm
03:00 AM 57.5°F14.2°C 55.5°F13.1°C 93% Calm Calm -- 29.98 in1015.2 mb 0.00 in0.0 mm 0.00 in/hr0.0 mm/hr 0.00 in0.0 mm
02:50 AM 57.5°F14.2°C 55.5°F13.1°C 93% Calm Calm -- 29.98 in1015.2 mb 0.00 in0.0 mm 0.00 in/hr0.0 mm/hr 0.00 in0.0 mm
02:40 AM 57.5°F14.2°C 55.5°F13.1°C 93% 0.1 mph E0.2 kmh E 1.1 mph1.8 kmh 29.98 in1015.2 mb 0.00 in0.0 mm 0.00 in/hr0.0 mm/hr 0.00 in0.0 mm
02:30 AM 57.6°F14.2°C 55.5°F13.1°C 93% 0.1 mph E0.2 kmh E 1.1 mph1.8 kmh 29.98 in1015.2 mb 0.00 in0.0 mm 0.00 in/hr0.0 mm/hr 0.00 in0.0 mm
02:20 AM 57.5°F14.2°C 55.2°F12.9°C 92% 0.1 mph E0.2 kmh E 1.1 mph1.8 kmh 29.98 in1015.2 mb 0.00 in0.0 mm 0.00 in/hr0.0 mm/hr 0.00 in0.0 mm
02:10 AM 57.6°F14.2°C 55.3°F12.9°C 92% 0.3 mph E0.5 kmh E 1.1 mph1.8 kmh 29.98 in1015.2 mb 0.00 in0.0 mm 0.00 in/hr0.0 mm/hr 0.00 in0.0 mm
02:00 AM 57.7°F14.3°C 55.4°F13.0°C 92% Calm Calm -- 29.99 in1015.6 mb 0.00 in0.0 mm 0.00 in/hr0.0 mm/hr 0.00 in0.0 mm
01:50 AM 57.8°F14.3°C 55.5°F13.1°C 92% Calm Calm 1.1 mph1.8 kmh 29.99 in1015.6 mb 0.00 in0.0 mm 0.00 in/hr0.0 mm/hr 0.00 in0.0 mm
01:40 AM 57.6°F14.2°C 55.3°F12.9°C 92% 0.7 mph E1.1 kmh E 1.1 mph1.8 kmh 29.99 in1015.6 mb 0.00 in0.0 mm 0.00 in/hr0.0 mm/hr 0.00 in0.0 mm
01:30 AM 57.5°F14.2°C 55.2°F12.9°C 92% Calm Calm -- 29.99 in1015.6 mb 0.00 in0.0 mm 0.00 in/hr0.0 mm/hr 0.00 in0.0 mm
01:20 AM 57.6°F14.2°C 55.0°F12.8°C 91% Calm Calm -- 29.99 in1015.6 mb 0.00 in0.0 mm 0.00 in/hr0.0 mm/hr 0.00 in0.0 mm
01:10 AM 57.7°F14.3°C 55.1°F12.8°C 91% Calm Calm -- 29.99 in1015.6 mb 0.00 in0.0 mm 0.00 in/hr0.0 mm/hr 0.00 in0.0 mm
01:00 AM 57.9°F14.4°C 55.3°F12.9°C 91% Calm Calm -- 29.99 in1015.6 mb 0.00 in0.0 mm 0.00 in/hr0.0 mm/hr 0.00 in0.0 mm
12:50 AM 58.0°F14.4°C 55.4°F13.0°C 91% Calm Calm -- 29.99 in1015.6 mb 0.00 in0.0 mm 0.00 in/hr0.0 mm/hr 0.00 in0.0 mm
12:40 AM 58.2°F14.6°C 55.2°F12.9°C 90% Calm Calm -- 29.99 in1015.6 mb 0.00 in0.0 mm 0.00 in/hr0.0 mm/hr 0.00 in0.0 mm
12:30 AM 58.4°F14.7°C 55.5°F13.1°C 90% Calm Calm -- 29.99 in1015.6 mb 0.00 in0.0 mm 0.00 in/hr0.0 mm/hr 0.00 in0.0 mm
12:20 AM 58.6°F14.8°C 55.7°F13.2°C 90% Calm Calm -- 30.00 in1015.9 mb 0.00 in0.0 mm 0.00 in/hr0.0 mm/hr 0.00 in0.0 mm
12:10 AM 58.7°F14.8°C 55.5°F13.1°C 89% Calm Calm -- 30.00 in1015.9 mb 0.00 in0.0 mm 0.00 in/hr0.0 mm/hr 0.00 in0.0 mm
12:00 AM 59.0°F15.0°C 55.8°F13.2°C 89% Calm Calm -- 30.00 in1015.9 mb 0.00 in0.0 mm 0.00 in/hr0.0 mm/hr 0.00 in0.0 mm